createdAt,value
2022-08-03T00:01:32.289Z,69.60
2022-08-03T00:03:59.343Z,69.60
2022-08-03T00:06:26.353Z,69.60
2022-08-03T00:08:53.356Z,69.70
2022-08-03T00:11:20.385Z,69.70
2022-08-03T00:13:47.353Z,69.70
2022-08-03T00:16:14.523Z,69.80
2022-08-03T00:18:41.575Z,69.90
2022-08-03T00:21:09.070Z,70.00
2022-08-03T00:23:52.313Z,70.00
2022-08-03T00:26:20.826Z,70.10
2022-08-03T00:28:48.495Z,70.30
2022-08-03T00:31:15.524Z,70.40
2022-08-03T00:33:58.994Z,70.40
2022-08-03T00:36:28.131Z,70.40
2022-08-03T00:38:56.358Z,70.40
2022-08-03T00:41:23.349Z,70.40
2022-08-03T00:43:50.624Z,70.40
2022-08-03T00:46:21.360Z,70.40
2022-08-03T00:48:52.429Z,70.50
2022-08-03T00:51:21.557Z,70.60
2022-08-03T00:53:49.001Z,70.70
2022-08-03T00:56:17.450Z,70.80
2022-08-03T00:58:45.402Z,70.80
2022-08-03T01:01:12.931Z,70.80
2022-08-03T01:03:40.578Z,70.90
2022-08-03T01:06:10.764Z,70.90
2022-08-03T01:08:59.654Z,70.90
2022-08-03T01:11:29.511Z,71.00
2022-08-03T01:14:18.682Z,71.10
2022-08-03T01:17:44.130Z,71.10
2022-08-03T01:20:15.167Z,71.20
2022-08-03T01:23:03.676Z,71.20
2022-08-03T01:25:54.934Z,71.20
2022-08-03T01:29:03.341Z,71.10
2022-08-03T01:31:37.052Z,71.10
2022-08-03T01:34:31.467Z,71.00
2022-08-03T01:37:02.032Z,71.00
2022-08-03T01:39:31.921Z,71.10
2022-08-03T01:42:06.215Z,71.20
2022-08-03T01:44:38.357Z,71.30
2022-08-03T01:47:06.541Z,71.50
2022-08-03T01:49:38.998Z,71.60
2022-08-03T01:52:07.645Z,71.60
2022-08-03T01:54:45.387Z,71.50
2022-08-03T01:57:14.191Z,71.40
2022-08-03T01:59:43.141Z,71.30
2022-08-03T02:02:19.557Z,71.10
2022-08-03T02:05:01.621Z,71.10
2022-08-03T02:07:30.432Z,71.30
2022-08-03T02:09:59.837Z,71.40
2022-08-03T02:12:28.826Z,71.40
2022-08-03T02:14:59.937Z,71.40
2022-08-03T02:17:39.228Z,71.30
2022-08-03T02:20:09.115Z,71.30
2022-08-03T02:22:37.776Z,71.30
2022-08-03T02:25:05.118Z,71.40
2022-08-03T02:27:34.495Z,71.50
2022-08-03T02:30:09.403Z,71.50
2022-08-03T02:32:39.411Z,71.40
2022-08-03T02:35:13.326Z,71.40
2022-08-03T02:37:49.812Z,71.50
2022-08-03T02:40:19.424Z,71.70
2022-08-03T02:42:49.423Z,71.70
2022-08-03T02:45:18.354Z,71.80
2022-08-03T02:47:54.345Z,71.90
2022-08-03T02:50:23.902Z,72.00
2022-08-03T02:52:53.278Z,72.00
2022-08-03T02:55:22.459Z,72.10
2022-08-03T02:57:51.007Z,72.00
2022-08-03T03:00:19.634Z,71.90
2022-08-03T03:03:01.464Z,71.90
2022-08-03T03:05:55.449Z,72.00
2022-08-03T03:08:20.824Z,72.10
2022-08-03T03:10:55.529Z,72.10
2022-08-03T03:13:23.439Z,72.10
2022-08-03T03:15:52.196Z,72.00
2022-08-03T03:18:22.741Z,72.00
2022-08-03T03:20:52.634Z,72.00
2022-08-03T03:23:24.891Z,72.00
2022-08-03T03:25:52.996Z,72.00
2022-08-03T03:28:20.855Z,72.10
2022-08-03T03:30:52.810Z,72.10
2022-08-03T03:33:21.755Z,72.20
2022-08-03T03:35:48.981Z,72.20
2022-08-03T03:38:16.081Z,72.20
2022-08-03T03:40:43.458Z,72.30
2022-08-03T03:43:12.134Z,72.30
2022-08-03T03:45:41.955Z,72.30
2022-08-03T03:48:09.066Z,72.20
2022-08-03T03:50:37.505Z,72.10
2022-08-03T03:53:04.882Z,72.10
2022-08-03T03:55:31.931Z,72.10
2022-08-03T03:57:59.613Z,72.10
2022-08-03T04:00:26.533Z,72.20
2022-08-03T04:02:53.506Z,72.30
2022-08-03T04:05:42.875Z,72.40
2022-08-03T04:08:36.252Z,72.50
2022-08-03T04:11:30.271Z,72.60
2022-08-03T04:14:04.944Z,72.60
2022-08-03T04:16:35.579Z,72.90
2022-08-03T04:19:08.174Z,72.90
2022-08-03T04:21:38.225Z,73.00
2022-08-03T04:24:08.553Z,73.00
2022-08-03T04:26:39.833Z,73.10
2022-08-03T04:29:09.406Z,73.10
2022-08-03T04:31:38.509Z,73.20
2022-08-03T04:34:06.085Z,73.30
2022-08-03T04:36:37.171Z,73.40
2022-08-03T04:39:17.019Z,73.40
2022-08-03T04:42:04.733Z,73.40
2022-08-03T04:44:37.746Z,73.30
2022-08-03T04:47:04.794Z,73.30
2022-08-03T04:49:32.671Z,73.20
2022-08-03T04:51:59.845Z,73.30
2022-08-03T04:54:26.795Z,73.50
2022-08-03T04:56:53.745Z,73.70
2022-08-03T04:59:20.698Z,73.80
2022-08-03T05:01:47.756Z,73.80
2022-08-03T05:04:15.255Z,73.80
2022-08-03T05:06:48.045Z,73.80
2022-08-03T05:09:15.460Z,74.00
2022-08-03T05:12:02.466Z,74.00
2022-08-03T05:14:29.383Z,74.10
2022-08-03T05:16:56.331Z,74.10
2022-08-03T05:19:23.287Z,74.20
2022-08-03T05:21:52.581Z,74.30
2022-08-03T05:24:20.023Z,74.40
2022-08-03T05:26:47.061Z,74.50
2022-08-03T05:29:14.027Z,74.60
2022-08-03T05:31:40.947Z,74.70
2022-08-03T05:34:08.367Z,74.90
2022-08-03T05:36:35.287Z,75.20
2022-08-03T05:39:02.882Z,75.40
2022-08-03T05:41:36.570Z,75.70
2022-08-03T05:44:05.054Z,76.00
2022-08-03T05:46:32.297Z,76.30
2022-08-03T05:48:59.486Z,76.60
2022-08-03T05:51:26.580Z,76.90
2022-08-03T05:53:53.562Z,77.10
2022-08-03T05:56:25.244Z,77.40
2022-08-03T05:58:52.786Z,77.60
2022-08-03T06:01:22.059Z,77.80
2022-08-03T06:03:50.436Z,78.00
2022-08-03T06:06:17.926Z,78.10
2022-08-03T06:08:46.148Z,78.20
2022-08-03T06:11:13.570Z,78.20
2022-08-03T06:13:41.158Z,78.40
2022-08-03T06:16:08.196Z,78.40
2022-08-03T06:18:35.866Z,78.60
2022-08-03T06:21:14.801Z,78.80
2022-08-03T06:23:54.418Z,79.00
2022-08-03T06:26:24.120Z,79.20
2022-08-03T06:28:53.329Z,79.20
2022-08-03T06:31:26.209Z,79.20
2022-08-03T06:34:33.638Z,79.20
2022-08-03T06:36:50.991Z,79.30
2022-08-03T06:39:20.017Z,79.30
2022-08-03T06:41:46.943Z,79.30
2022-08-03T06:44:13.961Z,79.40
2022-08-03T06:46:41.092Z,79.60
2022-08-03T06:49:08.415Z,79.70
2022-08-03T06:52:03.276Z,79.70
2022-08-03T06:54:22.420Z,79.70
2022-08-03T06:56:49.370Z,79.70
2022-08-03T07:00:06.512Z,79.60
2022-08-03T07:02:03.838Z,79.60
2022-08-03T07:04:30.977Z,79.50
2022-08-03T07:06:58.597Z,79.30
2022-08-03T07:09:26.908Z,79.10
2022-08-03T07:11:54.596Z,79.10
2022-08-03T07:14:21.929Z,79.00
2022-08-03T07:16:48.952Z,78.90
2022-08-03T07:19:16.139Z,78.80
2022-08-03T07:21:43.103Z,78.80
2022-08-03T07:24:10.029Z,78.80
2022-08-03T07:26:37.095Z,78.70
2022-08-03T07:29:04.208Z,78.50
2022-08-03T07:31:42.321Z,78.50
2022-08-03T07:34:09.256Z,78.40
2022-08-03T07:36:36.318Z,78.30
2022-08-03T07:39:17.908Z,78.20
2022-08-03T07:41:46.040Z,78.10
2022-08-03T07:44:13.365Z,78.10
2022-08-03T07:46:40.303Z,78.20
2022-08-03T07:49:07.299Z,77.90
2022-08-03T07:51:34.446Z,77.70
2022-08-03T07:54:01.537Z,77.40
2022-08-03T07:56:28.768Z,77.10
2022-08-03T07:58:56.199Z,76.90
2022-08-03T08:01:23.453Z,76.70
2022-08-03T08:03:53.238Z,76.30
2022-08-03T08:06:21.719Z,76.00
2022-08-03T08:08:48.771Z,75.60
2022-08-03T08:11:15.845Z,75.20
2022-08-03T08:13:42.966Z,74.80
2022-08-03T08:16:12.685Z,74.30
2022-08-03T08:18:39.631Z,74.00
2022-08-03T08:21:06.924Z,73.60
2022-08-03T08:23:42.442Z,73.00
2022-08-03T08:26:11.062Z,72.40
2022-08-03T08:28:38.190Z,72.00
2022-08-03T08:31:05.178Z,71.30
2022-08-03T08:34:02.727Z,70.80
2022-08-03T08:36:22.117Z,70.60
2022-08-03T08:38:49.147Z,70.50
2022-08-03T08:41:17.056Z,70.00
2022-08-03T08:43:44.086Z,69.70
2022-08-03T08:46:13.069Z,69.50
2022-08-03T08:48:51.506Z,69.10
2022-08-03T08:51:20.933Z,68.70
2022-08-03T08:53:53.813Z,68.40
2022-08-03T08:56:25.581Z,68.30
2022-08-03T08:58:58.083Z,68.10
2022-08-03T09:01:25.228Z,67.80
2022-08-03T09:03:54.184Z,67.40
2022-08-03T09:06:22.110Z,66.90
2022-08-03T09:08:49.237Z,66.40
2022-08-03T09:11:16.232Z,65.70
2022-08-03T09:13:43.184Z,65.20
2022-08-03T09:16:12.566Z,64.90
2022-08-03T09:18:40.385Z,64.40
2022-08-03T09:21:34.968Z,63.90
2022-08-03T09:24:05.890Z,63.30
2022-08-03T09:26:36.149Z,62.90
2022-08-03T09:29:13.884Z,62.60
2022-08-03T09:31:47.052Z,62.00
2022-08-03T09:34:16.284Z,61.40
2022-08-03T09:36:48.087Z,61.00
2022-08-03T09:39:37.512Z,60.60
2022-08-03T09:42:09.060Z,60.40
2022-08-03T09:44:43.901Z,59.80
2022-08-03T09:47:12.732Z,59.20
2022-08-03T09:49:41.797Z,58.90
2022-08-03T09:52:37.819Z,58.70
2022-08-03T09:55:23.394Z,58.30
2022-08-03T09:58:07.069Z,58.00
2022-08-03T10:00:59.609Z,57.60
2022-08-03T10:03:29.801Z,57.20
2022-08-03T10:05:59.835Z,56.40
2022-08-03T10:08:27.259Z,56.10
2022-08-03T10:10:54.768Z,56.00
2022-08-03T10:13:23.396Z,55.90
2022-08-03T10:16:23.117Z,55.30
2022-08-03T10:18:37.899Z,55.20
2022-08-03T10:21:10.444Z,54.70
2022-08-03T10:23:40.109Z,54.20
2022-08-03T10:26:08.394Z,53.90
2022-08-03T10:28:44.516Z,53.20
2022-08-03T10:31:14.104Z,52.60
2022-08-03T10:33:52.866Z,52.20
2022-08-03T10:36:25.038Z,52.00
2022-08-03T10:38:53.764Z,51.90
2022-08-03T10:41:23.328Z,51.60
2022-08-03T10:44:02.186Z,51.50
2022-08-03T10:46:29.408Z,51.30
2022-08-03T10:48:57.052Z,50.40
2022-08-03T10:51:25.025Z,50.10
2022-08-03T10:53:54.614Z,49.90
2022-08-03T10:56:54.612Z,49.70
2022-08-03T10:59:46.690Z,49.30
2022-08-03T11:02:15.487Z,49.00
2022-08-03T11:04:44.773Z,48.90
2022-08-03T11:07:17.951Z,49.00
2022-08-03T11:09:50.662Z,48.70
2022-08-03T11:12:30.037Z,48.60
2022-08-03T11:15:07.680Z,48.30
2022-08-03T11:17:46.433Z,48.00
2022-08-03T11:20:48.772Z,47.50
2022-08-03T11:23:17.328Z,46.90
2022-08-03T11:26:13.056Z,46.90
2022-08-03T11:28:41.112Z,46.90
2022-08-03T11:31:48.014Z,47.20
2022-08-03T11:34:13.033Z,47.00
2022-08-03T11:37:17.628Z,46.80
2022-08-03T11:39:47.493Z,46.00
2022-08-03T11:42:26.298Z,45.70
2022-08-03T11:44:58.547Z,45.60
2022-08-03T11:47:27.963Z,45.90
2022-08-03T11:50:00.755Z,46.20
2022-08-03T11:52:33.880Z,46.30
2022-08-03T11:55:01.916Z,46.00
2022-08-03T11:59:01.775Z,45.50
2022-08-03T12:00:26.677Z,45.50
2022-08-03T12:03:01.270Z,45.40
2022-08-03T12:05:40.459Z,45.40
2022-08-03T12:08:08.683Z,45.10
2022-08-03T12:10:37.086Z,45.10
2022-08-03T12:14:36.707Z,44.90
2022-08-03T12:15:56.099Z,44.70
2022-08-03T12:18:24.345Z,44.40
2022-08-03T12:20:54.315Z,44.40
2022-08-03T12:23:21.349Z,44.40
2022-08-03T12:25:49.557Z,44.50
2022-08-03T12:28:37.128Z,43.90
2022-08-03T12:31:09.536Z,43.70
2022-08-03T12:34:00.338Z,43.80
2022-08-03T12:36:28.527Z,43.80
2022-08-03T12:39:04.939Z,43.30
2022-08-03T12:41:35.469Z,43.10
2022-08-03T12:44:04.407Z,43.10
2022-08-03T12:46:34.210Z,42.80
2022-08-03T12:49:05.892Z,42.70
2022-08-03T12:51:54.395Z,42.50
2022-08-03T12:54:27.169Z,42.60
2022-08-03T12:57:15.804Z,42.40
2022-08-03T12:59:53.257Z,42.50
2022-08-03T13:02:23.703Z,42.60
2022-08-03T13:04:52.853Z,42.70
2022-08-03T13:07:21.018Z,41.90
2022-08-03T13:09:53.258Z,41.70
2022-08-03T13:12:22.994Z,41.70
2022-08-03T13:14:53.711Z,41.70
2022-08-03T13:17:21.384Z,41.70
2022-08-03T13:19:49.348Z,41.80
2022-08-03T13:22:18.549Z,41.90
2022-08-03T13:24:47.264Z,41.50
2022-08-03T13:28:01.165Z,41.10
2022-08-03T13:30:01.788Z,40.70
2022-08-03T13:32:28.726Z,40.30
2022-08-03T13:34:55.724Z,40.10
2022-08-03T13:37:23.097Z,40.20
2022-08-03T13:39:59.801Z,40.30
2022-08-03T13:42:29.695Z,40.10
2022-08-03T13:44:56.693Z,39.80
2022-08-03T13:47:23.751Z,39.80
2022-08-03T13:49:59.650Z,39.70
2022-08-03T13:52:34.011Z,39.70
2022-08-03T13:55:01.832Z,39.60
2022-08-03T13:58:11.349Z,39.10
2022-08-03T14:00:28.097Z,39.10
2022-08-03T14:03:04.011Z,39.00
2022-08-03T14:05:32.982Z,39.10
2022-08-03T14:08:05.658Z,39.00
2022-08-03T14:10:34.464Z,39.10
2022-08-03T14:13:01.622Z,39.20
2022-08-03T14:15:29.059Z,39.00
2022-08-03T14:17:58.710Z,38.80
2022-08-03T14:20:37.926Z,38.60
2022-08-03T14:23:07.145Z,38.60
2022-08-03T14:25:44.261Z,38.40
2022-08-03T14:28:19.162Z,38.70
2022-08-03T14:30:46.268Z,38.70
2022-08-03T14:33:13.215Z,38.80
2022-08-03T14:35:40.365Z,38.70
2022-08-03T14:38:07.348Z,38.60
2022-08-03T14:40:34.364Z,38.60
2022-08-03T14:43:02.486Z,38.40
2022-08-03T14:45:29.471Z,38.70
2022-08-03T14:50:29.464Z,38.90
2022-08-03T14:50:50.344Z,38.70
2022-08-03T14:53:18.869Z,38.70
2022-08-03T14:55:50.713Z,38.60
2022-08-03T14:58:21.125Z,38.50
2022-08-03T15:00:50.332Z,38.70
2022-08-03T15:03:20.491Z,38.90
2022-08-03T15:05:47.732Z,39.00
2022-08-03T15:08:14.734Z,39.00
2022-08-03T15:10:44.931Z,39.40
2022-08-03T15:13:13.482Z,39.20
2022-08-03T15:15:41.169Z,38.80
2022-08-03T15:18:08.570Z,38.80
2022-08-03T15:20:44.534Z,39.00
2022-08-03T15:23:13.301Z,39.20
2022-08-03T15:26:03.894Z,39.00
2022-08-03T15:28:27.199Z,39.00
2022-08-03T15:30:54.274Z,39.30
2022-08-03T15:33:21.225Z,39.50
2022-08-03T15:35:48.430Z,39.60
2022-08-03T15:38:15.690Z,39.20
2022-08-03T15:40:42.646Z,39.10
2022-08-03T15:43:09.708Z,38.90
2022-08-03T15:45:37.198Z,38.60
2022-08-03T15:48:08.164Z,38.30
2022-08-03T15:50:35.241Z,38.30
2022-08-03T15:53:02.182Z,38.20
2022-08-03T15:55:29.496Z,38.10
2022-08-03T15:59:03.801Z,38.00
2022-08-03T16:00:43.731Z,37.90
2022-08-03T16:03:10.819Z,38.10
2022-08-03T16:05:37.889Z,38.00
2022-08-03T16:08:07.100Z,37.80
2022-08-03T16:10:37.351Z,37.80
2022-08-03T16:13:04.257Z,37.90
2022-08-03T16:15:31.260Z,37.90
2022-08-03T16:17:58.252Z,38.00
2022-08-03T16:20:31.668Z,38.10
2022-08-03T16:23:10.834Z,38.30
2022-08-03T16:25:44.409Z,38.60
2022-08-03T16:28:17.338Z,39.00
2022-08-03T16:30:45.684Z,39.20
2022-08-03T16:33:16.987Z,39.30
2022-08-03T16:35:45.968Z,39.50
2022-08-03T16:38:18.608Z,39.80
2022-08-03T16:40:47.300Z,40.20
2022-08-03T16:43:18.302Z,40.80
2022-08-03T16:45:47.220Z,41.30
2022-08-03T16:48:15.368Z,41.80
2022-08-03T16:50:42.451Z,42.30
2022-08-03T16:53:16.619Z,42.50
2022-08-03T16:55:58.026Z,42.80
2022-08-03T16:58:41.307Z,42.90
2022-08-03T17:01:22.097Z,43.00
2022-08-03T17:04:03.491Z,43.50
2022-08-03T17:06:35.435Z,43.90
2022-08-03T17:09:09.482Z,44.10
2022-08-03T17:11:44.065Z,44.40
2022-08-03T17:14:21.940Z,44.90
2022-08-03T17:16:54.087Z,44.90
2022-08-03T17:19:23.760Z,45.00
2022-08-03T17:22:04.201Z,45.40
2022-08-03T17:24:34.957Z,45.60
2022-08-03T17:27:09.257Z,45.50
2022-08-03T17:30:07.668Z,45.50
2022-08-03T17:32:42.447Z,45.60
2022-08-03T17:35:11.166Z,45.70
2022-08-03T17:37:58.671Z,45.80
2022-08-03T17:40:25.786Z,46.00
2022-08-03T17:42:53.237Z,46.40
2022-08-03T17:45:20.696Z,46.60
2022-08-03T17:47:57.112Z,46.80
2022-08-03T17:50:35.363Z,46.90
2022-08-03T17:53:23.471Z,46.60
2022-08-03T17:56:42.648Z,46.50
2022-08-03T17:59:51.538Z,46.50
2022-08-03T18:02:40.501Z,46.50
2022-08-03T18:05:17.679Z,46.50
2022-08-03T18:07:47.638Z,46.80
2022-08-03T18:10:28.310Z,46.90
2022-08-03T18:13:10.427Z,46.90
2022-08-03T18:15:42.776Z,46.60
2022-08-03T18:18:14.071Z,46.60
2022-08-03T18:20:45.722Z,46.80
2022-08-03T18:26:10.760Z,46.90
2022-08-03T18:28:40.616Z,47.00
2022-08-03T18:31:11.561Z,47.10
2022-08-03T18:34:19.155Z,47.20
2022-08-03T18:36:29.696Z,47.20
2022-08-03T18:38:59.518Z,47.30
2022-08-03T18:41:32.364Z,47.40
2022-08-03T18:44:09.533Z,47.50
2022-08-03T18:47:16.193Z,47.60
2022-08-03T18:50:19.311Z,47.80
2022-08-03T18:52:54.078Z,48.00
2022-08-03T18:55:35.842Z,47.80
2022-08-03T18:58:18.369Z,47.90
2022-08-03T19:01:03.605Z,48.00
2022-08-03T19:03:43.219Z,48.10
2022-08-03T19:06:24.226Z,48.20
2022-08-03T19:09:05.374Z,48.60
2022-08-03T19:12:12.394Z,48.80
2022-08-03T19:14:43.261Z,49.10
2022-08-03T19:17:11.841Z,49.50
2022-08-03T19:19:44.913Z,49.70
2022-08-03T19:22:16.308Z,49.80
2022-08-03T19:24:46.357Z,50.00
2022-08-03T19:27:14.240Z,50.40
2022-08-03T19:29:58.515Z,50.60
2022-08-03T19:32:30.835Z,50.70
2022-08-03T19:34:59.915Z,50.90
2022-08-03T19:37:33.280Z,51.10
2022-08-03T19:40:10.956Z,51.30
2022-08-03T19:42:44.472Z,51.50
2022-08-03T19:48:09.991Z,52.00
2022-08-03T19:50:37.965Z,52.10
2022-08-03T19:53:13.443Z,52.20
2022-08-03T19:55:49.083Z,52.40
2022-08-03T20:01:19.367Z,52.90
2022-08-03T20:03:49.506Z,53.20
2022-08-03T20:06:18.055Z,53.30
2022-08-03T20:08:51.472Z,53.50
2022-08-03T20:11:20.051Z,53.50
2022-08-03T20:13:49.827Z,53.40
2022-08-03T20:16:16.830Z,53.50
2022-08-03T20:18:44.391Z,53.80
2022-08-03T20:21:15.613Z,54.10
2022-08-03T20:24:00.054Z,54.30
2022-08-03T20:26:31.027Z,54.50
2022-08-03T20:29:10.122Z,54.80
2022-08-03T20:31:37.705Z,54.80
2022-08-03T20:34:06.464Z,54.80
2022-08-03T20:36:33.502Z,55.00
2022-08-03T20:39:00.568Z,55.30
2022-08-03T20:41:27.667Z,55.50
2022-08-03T20:43:59.287Z,55.70
2022-08-03T20:46:31.889Z,56.00
2022-08-03T20:49:05.069Z,56.20
2022-08-03T20:51:50.626Z,56.40
2022-08-03T20:54:30.951Z,56.50
2022-08-03T20:57:04.446Z,56.60
2022-08-03T20:59:50.092Z,56.80
2022-08-03T21:02:29.471Z,56.70
2022-08-03T21:05:03.804Z,56.90
2022-08-03T21:08:06.358Z,57.10
2022-08-03T21:10:35.853Z,57.30
2022-08-03T21:13:05.597Z,46.90
2022-08-03T21:13:08.461Z,51.90
2022-08-03T21:13:11.013Z,52.70
2022-08-03T21:13:23.512Z,57.40
2022-08-03T21:16:03.281Z,57.40
2022-08-03T21:18:52.411Z,57.60
2022-08-03T21:21:22.431Z,57.90
2022-08-03T21:23:52.922Z,58.10
2022-08-03T21:26:25.511Z,58.30
2022-08-03T21:28:55.209Z,58.50
2022-08-03T21:31:25.449Z,58.80
2022-08-03T21:33:58.167Z,59.00
2022-08-03T21:36:27.902Z,59.30
2022-08-03T21:38:57.598Z,59.40
2022-08-03T21:41:27.223Z,59.60
2022-08-03T21:43:54.218Z,59.80
2022-08-03T21:46:22.499Z,59.90
2022-08-03T21:48:54.765Z,60.10
2022-08-03T21:51:25.525Z,60.30
2022-08-03T21:54:03.417Z,60.40
2022-08-03T21:56:41.685Z,60.60
2022-08-03T21:59:16.040Z,60.70
2022-08-03T22:01:45.600Z,60.90
2022-08-03T22:04:50.603Z,61.00
2022-08-03T22:07:07.050Z,61.20
2022-08-03T22:09:35.333Z,61.40
2022-08-03T22:12:02.605Z,61.60
2022-08-03T22:14:32.222Z,61.70
2022-08-03T22:17:01.014Z,61.80
2022-08-03T22:19:33.378Z,62.00
2022-08-03T22:22:01.551Z,62.10
2022-08-03T22:24:32.065Z,62.20
2022-08-03T22:27:21.295Z,62.30
2022-08-03T22:29:51.021Z,62.40
2022-08-03T22:32:17.982Z,62.50
2022-08-03T22:34:46.948Z,62.60
2022-08-03T22:37:17.080Z,62.70
2022-08-03T22:39:44.787Z,62.70
2022-08-03T22:42:12.821Z,62.90
2022-08-03T22:44:40.688Z,63.00
2022-08-03T22:47:09.650Z,63.10
2022-08-03T22:49:37.899Z,63.20
2022-08-03T22:52:07.484Z,63.30
2022-08-03T22:54:36.139Z,63.40
2022-08-03T22:57:04.664Z,63.50
2022-08-03T22:59:40.257Z,63.50
2022-08-03T23:02:20.935Z,63.60
2022-08-03T23:04:57.027Z,63.60
2022-08-03T23:07:36.547Z,63.60
2022-08-03T23:10:10.886Z,63.60
2022-08-03T23:12:39.846Z,63.70
2022-08-03T23:15:13.702Z,63.70
2022-08-03T23:17:57.889Z,63.80
2022-08-03T23:20:27.044Z,63.90
2022-08-03T23:22:57.847Z,63.90
2022-08-03T23:25:25.251Z,63.90
2022-08-03T23:28:04.935Z,64.00
2022-08-03T23:30:37.212Z,64.10
2022-08-03T23:33:05.269Z,64.20
2022-08-03T23:36:18.755Z,64.10
2022-08-03T23:38:37.794Z,64.30
2022-08-03T23:41:05.305Z,64.30
2022-08-03T23:43:51.477Z,64.40
2022-08-03T23:46:21.246Z,64.40
2022-08-03T23:48:48.660Z,64.50
2022-08-03T23:51:33.839Z,64.50
2022-08-03T23:54:12.490Z,64.60
2022-08-03T23:56:55.413Z,64.60
2022-08-03T23:59:31.172Z,64.80
